PST,Max TemperatureF,Mean TemperatureF,Min TemperatureF,Max Dew PointF,MeanDew PointF,Min DewpointF,Max Humidity, Mean Humidity, Min Humidity, Max Sea Level PressureIn, Mean Sea Level PressureIn, Min Sea Level PressureIn, Max VisibilityMiles, Mean VisibilityMiles, Min VisibilityMiles, Max Wind SpeedMPH, Mean Wind SpeedMPH, Max Gust SpeedMPH,PrecipitationIn, CloudCover, Events, WindDirDegrees
2013-1-1,59,50,42,42,36,19,87,62,24,30.25,30.18,30.11,10,10,10,14,4,,0.00,5,,35
2013-1-2,66,52,39,36,30,18,82,46,21,30.14,30.08,30.04,10,10,10,14,5,,0.00,0,,326
2013-1-3,68,52,37,43,36,20,87,62,17,30.19,30.11,30.07,10,10,10,10,4,,0.00,0,,49
2013-1-4,64,48,33,45,33,20,95,61,19,30.29,30.22,30.19,10,10,10,8,3,,0.00,0,,335
2013-1-5,62,49,36,44,31,24,83,57,26,30.30,30.26,30.20,10,10,10,8,2,,0.00,1,,22
2013-1-6,57,50,42,52,46,42,100,94,59,30.21,30.17,30.04,10,5,0,15,2,,0.05,6,Fog-Rain,6
2013-1-7,64,50,37,47,41,33,100,84,33,30.11,30.04,30.00,10,7,1,10,3,,0.00,1,,359
2013-1-8,63,50,38,56,46,35,100,91,63,30.13,30.09,30.03,10,6,0,8,2,,0.00,0,Fog,63
2013-1-9,64,52,41,55,46,41,100,96,51,30.14,30.09,30.03,10,4,0,9,2,,0.00,2,Fog,104
2013-1-10,59,52,46,54,43,25,100,72,30,30.11,29.98,29.93,10,10,6,21,6,29,0.01,5,Rain,234
2013-1-11,56,48,40,31,24,19,52,38,28,30.19,30.12,30.07,10,10,10,17,11,26,0.00,0,,296
2013-1-12,55,44,32,34,28,21,82,54,27,30.18,30.12,30.09,10,10,10,13,5,,0.00,1,,48
2013-1-13,55,44,33,32,27,16,79,54,25,30.18,30.12,30.07,10,10,10,14,4,,0.00,2,,16
2013-1-14,56,48,37,27,12,2,56,28,13,30.35,30.27,30.17,10,10,10,17,11,23,0.00,0,,63
2013-1-15,61,46,31,36,25,17,79,50,18,30.47,30.39,30.34,10,10,10,10,4,,0.00,1,,320
2013-1-16,70,52,34,45,35,28,82,60,21,30.36,30.26,30.13,10,10,10,8,3,,0.00,0,,328
2013-1-17,78,58,37,34,26,14,79,37,9,30.17,30.12,30.05,10,10,10,23,5,28,0.00,0,,13
2013-1-18,78,59,40,40,32,21,68,43,12,30.14,30.10,30.05,10,10,10,13,3,,0.00,1,,2
2013-1-19,77,60,42,38,29,22,77,38,14,30.19,30.12,30.07,10,10,10,8,3,,0.00,0,,298
2013-1-20,79,60,41,42,30,16,64,39,9,30.14,30.08,30.01,10,10,10,9,3,,0.00,0,,318
2013-1-21,80,59,38,38,29,15,70,40,9,30.10,30.05,30.01,10,10,10,12,3,,0.00,0,,328
2013-1-22,79,58,37,41,34,22,81,52,12,30.10,30.06,30.02,10,10,10,10,2,,0.00,3,,341
2013-1-23,72,61,50,55,40,30,92,49,25,30.16,30.07,30.03,10,10,10,9,3,,0.00,7,Rain,127
2013-1-24,66,60,53,59,54,51,100,89,63,30.22,30.14,30.10,10,8,2,14,8,,0.65,7,Rain,33
2013-1-25,66,62,59,63,59,56,100,94,73,30.12,30.04,29.96,10,10,4,12,5,,0.09,7,Rain,346
2013-1-26,66,60,55,63,58,55,100,99,82,30.01,29.95,29.90,10,6,0,13,4,,0.02,7,Fog-Rain,190
2013-1-27,60,55,47,57,51,40,100,89,58,30.04,30.00,29.98,10,8,2,13,6,,0.00,6,Rain,169
2013-1-28,60,50,40,41,35,30,86,58,32,30.19,30.11,30.04,10,10,10,16,5,16,0.00,1,,308
2013-1-29,57,48,38,45,40,34,88,72,46,30.25,30.21,30.17,10,10,10,10,4,,0.00,3,,135
2013-1-30,65,52,40,48,44,39,100,75,43,30.36,30.27,30.22,10,10,10,8,2,,0.00,0,,65
2013-1-31,77,58,40,49,43,39,100,66,28,30.24,30.16,30.10,10,10,10,12,2,,0.00,0,,310